createdAt,value
2017-08-21T00:00:46.692Z,92.50
2017-08-21T00:03:14.939Z,92.50
2017-08-21T00:05:43.167Z,92.80
2017-08-21T00:08:10.848Z,92.80
2017-08-21T00:10:39.067Z,93.50
2017-08-21T00:13:06.529Z,93.50
2017-08-21T00:15:34.084Z,93.30
2017-08-21T00:18:02.348Z,94.10
2017-08-21T00:20:31.136Z,93.50
2017-08-21T00:22:58.605Z,93.50
2017-08-21T00:25:26.064Z,93.70
2017-08-21T00:27:53.517Z,93.80
2017-08-21T00:30:21.091Z,93.60
2017-08-21T00:32:49.316Z,93.80
2017-08-21T00:35:16.791Z,93.70
2017-08-21T00:37:45.039Z,94.00
2017-08-21T00:40:12.592Z,94.00
2017-08-21T00:42:40.856Z,94.50
2017-08-21T00:45:09.119Z,94.60
2017-08-21T00:47:37.488Z,94.60
2017-08-21T00:50:05.713Z,94.60
2017-08-21T00:52:33.179Z,94.90
2017-08-21T00:55:01.407Z,94.70
2017-08-21T00:57:28.985Z,94.70
2017-08-21T00:59:57.243Z,94.80
2017-08-21T01:02:25.499Z,94.70
2017-08-21T01:04:53.043Z,94.70
2017-08-21T01:07:20.592Z,94.90
2017-08-21T01:09:48.051Z,95.00
2017-08-21T01:12:15.575Z,95.10
2017-08-21T01:14:43.042Z,95.20
2017-08-21T01:17:11.283Z,95.40
2017-08-21T01:19:39.536Z,95.70
2017-08-21T01:22:07.088Z,95.50
2017-08-21T01:24:35.348Z,95.70
2017-08-21T01:27:03.708Z,95.90
2017-08-21T01:29:31.967Z,96.00
2017-08-21T01:32:00.231Z,96.10
2017-08-21T01:34:28.477Z,96.60
2017-08-21T01:36:56.040Z,96.20
2017-08-21T01:39:24.264Z,96.20
2017-08-21T01:41:51.840Z,96.20
2017-08-21T01:44:20.072Z,96.30
2017-08-21T01:46:47.544Z,96.30
2017-08-21T01:49:15.774Z,96.60
2017-08-21T01:51:43.255Z,96.60
2017-08-21T01:54:10.788Z,96.60
2017-08-21T01:56:39.047Z,96.80
2017-08-21T01:59:07.287Z,96.90
2017-08-21T02:01:34.848Z,96.90
2017-08-21T02:04:03.089Z,97.00
2017-08-21T02:06:30.551Z,96.90
2017-08-21T02:08:58.915Z,97.20
2017-08-21T02:11:27.176Z,97.20
2017-08-21T02:13:55.431Z,97.20
2017-08-21T02:16:22.956Z,97.10
2017-08-21T02:18:51.324Z,97.30
2017-08-21T02:21:19.587Z,97.40
2017-08-21T02:23:47.845Z,97.40
2017-08-21T02:26:16.076Z,97.50
2017-08-21T02:28:43.639Z,97.50
2017-08-21T02:31:11.914Z,97.30
2017-08-21T02:33:39.383Z,97.40
2017-08-21T02:36:06.879Z,97.40
2017-08-21T02:38:45.236Z,97.50
2017-08-21T02:41:12.828Z,97.60
2017-08-21T02:43:40.372Z,97.30
2017-08-21T02:46:08.632Z,97.30
2017-08-21T02:48:36.996Z,97.30
2017-08-21T02:51:05.256Z,97.40
2017-08-21T02:53:33.511Z,97.40
2017-08-21T02:56:01.782Z,97.40
2017-08-21T02:58:30.120Z,97.40
2017-08-21T03:00:57.596Z,97.30
2017-08-21T03:03:25.323Z,97.50
2017-08-21T03:05:53.589Z,97.60
2017-08-21T03:08:22.345Z,97.60
2017-08-21T03:10:50.009Z,97.60
2017-08-21T03:13:17.547Z,97.70
2017-08-21T03:15:45.016Z,97.70
2017-08-21T03:18:12.500Z,97.90
2017-08-21T03:20:40.063Z,97.70
2017-08-21T03:23:08.324Z,97.50
2017-08-21T03:25:36.683Z,97.60
2017-08-21T03:28:04.916Z,97.30
2017-08-21T03:30:32.381Z,97.30
2017-08-21T03:33:00.647Z,97.70
2017-08-21T03:35:28.915Z,97.80
2017-08-21T03:37:57.168Z,97.70
2017-08-21T03:40:25.423Z,98.40
2017-08-21T03:42:52.974Z,98.70
2017-08-21T03:45:21.200Z,98.20
2017-08-21T03:47:48.776Z,98.20
2017-08-21T03:50:17.029Z,98.80
2017-08-21T03:52:45.300Z,98.80
2017-08-21T03:55:13.561Z,98.70
2017-08-21T03:57:41.820Z,99.00
2017-08-21T04:00:10.079Z,98.80
2017-08-21T04:02:38.336Z,99.00
2017-08-21T04:05:06.595Z,98.90
2017-08-21T04:07:34.857Z,98.90
2017-08-21T04:10:03.120Z,99.20
2017-08-21T04:12:31.379Z,99.40
2017-08-21T04:14:59.640Z,99.30
2017-08-21T04:17:27.880Z,99.60
2017-08-21T04:19:55.443Z,99.60
2017-08-21T04:22:23.907Z,99.80
2017-08-21T04:24:52.139Z,99.90
2017-08-21T04:27:19.619Z,99.90
2017-08-21T04:29:47.174Z,99.90
2017-08-21T04:32:14.699Z,99.70
2017-08-21T04:34:42.956Z,99.60
2017-08-21T04:37:11.313Z,99.50
2017-08-21T04:39:39.584Z,99.40
2017-08-21T04:42:07.816Z,99.50
2017-08-21T04:44:35.440Z,99.50
2017-08-21T04:47:02.928Z,99.70
2017-08-21T04:49:31.160Z,99.60
2017-08-21T04:51:58.732Z,99.60
2017-08-21T04:54:26.968Z,99.70
2017-08-21T04:56:54.539Z,99.70
2017-08-21T04:59:23.000Z,99.70
2017-08-21T05:01:50.464Z,99.70
2017-08-21T05:04:17.939Z,99.70
2017-08-21T05:06:45.633Z,99.90
2017-08-21T05:09:13.859Z,99.70
2017-08-21T05:11:41.327Z,99.60
2017-08-21T05:14:09.051Z,99.60
2017-08-21T05:16:36.624Z,99.70
2017-08-21T05:19:04.851Z,99.90
2017-08-21T05:21:32.433Z,99.90
2017-08-21T05:24:00.684Z,99.90
2017-08-21T05:26:28.947Z,99.90
2017-08-21T05:28:57.207Z,99.80
2017-08-21T05:31:25.468Z,99.90
2017-08-21T05:33:53.723Z,99.90
2017-08-21T05:36:21.275Z,99.90
2017-08-21T05:38:49.512Z,99.80
2017-08-21T05:41:17.071Z,99.80
2017-08-21T05:43:45.404Z,99.80
2017-08-21T05:46:12.876Z,99.80
2017-08-21T05:48:41.108Z,99.90
2017-08-21T05:51:08.608Z,99.90
2017-08-21T05:53:36.131Z,99.90
2017-08-21T05:56:03.664Z,99.90
2017-08-21T05:58:32.127Z,99.80
2017-08-21T06:01:00.387Z,99.70
2017-08-21T06:03:28.660Z,99.50
2017-08-21T06:05:56.915Z,99.50
2017-08-21T06:08:25.152Z,99.60
2017-08-21T06:10:52.648Z,99.90
2017-08-21T06:13:20.155Z,99.50
2017-08-21T06:15:48.415Z,99.60
2017-08-21T06:18:16.667Z,99.70
2017-08-21T06:20:44.944Z,99.90
2017-08-21T06:23:13.171Z,99.70
2017-08-21T06:25:40.798Z,99.70
2017-08-21T06:28:08.291Z,99.90
2017-08-21T06:30:35.832Z,99.90
2017-08-21T06:33:04.087Z,99.90
2017-08-21T06:35:31.633Z,99.90
2017-08-21T06:37:59.859Z,99.80
2017-08-21T06:40:27.338Z,99.80
2017-08-21T06:42:55.591Z,99.60
2017-08-21T06:45:23.828Z,99.50
2017-08-21T06:47:51.484Z,99.50
2017-08-21T06:50:18.947Z,99.30
2017-08-21T06:52:47.203Z,98.90
2017-08-21T06:55:15.683Z,99.60
2017-08-21T06:57:43.144Z,99.40
2017-08-21T07:00:10.652Z,98.60
2017-08-21T07:02:38.890Z,98.50
2017-08-21T07:05:06.457Z,98.50
2017-08-21T07:07:34.711Z,98.20
2017-08-21T07:10:02.940Z,98.00
2017-08-21T07:12:30.405Z,98.00
2017-08-21T07:14:58.820Z,97.70
2017-08-21T07:17:26.326Z,98.00
2017-08-21T07:19:53.864Z,97.80
2017-08-21T07:22:22.132Z,97.60
2017-08-21T07:24:50.390Z,97.00
2017-08-21T07:27:18.648Z,97.10
2017-08-21T07:29:46.962Z,97.30
2017-08-21T07:32:14.452Z,97.30
2017-08-21T07:34:42.718Z,96.80
2017-08-21T07:37:10.935Z,96.60
2017-08-21T07:39:38.411Z,96.60
2017-08-21T07:42:06.772Z,96.10
2017-08-21T07:44:35.001Z,95.80
2017-08-21T07:47:02.474Z,95.70
2017-08-21T07:49:30.711Z,95.60
2017-08-21T07:51:58.184Z,95.60
2017-08-21T07:54:26.447Z,94.50
2017-08-21T07:56:53.975Z,94.50
2017-08-21T07:59:22.236Z,93.90
2017-08-21T08:01:50.463Z,94.60
2017-08-21T08:04:18.037Z,94.60
2017-08-21T08:06:46.298Z,94.10
2017-08-21T08:09:14.563Z,94.90
2017-08-21T08:11:42.823Z,94.10
2017-08-21T08:14:11.083Z,93.60
2017-08-21T08:16:39.340Z,93.00
2017-08-21T08:19:07.589Z,92.60
2017-08-21T08:21:35.044Z,92.60
2017-08-21T08:24:03.304Z,91.80
2017-08-21T08:26:31.556Z,91.60
2017-08-21T08:28:59.825Z,92.20
2017-08-21T08:31:28.084Z,91.60
2017-08-21T08:33:56.444Z,91.60
2017-08-21T08:36:23.904Z,91.60
2017-08-21T08:38:51.372Z,91.30
2017-08-21T08:41:18.847Z,92.00
2017-08-21T08:43:46.311Z,91.30
2017-08-21T08:46:14.540Z,91.10
2017-08-21T08:48:42.008Z,91.00
2017-08-21T08:51:09.463Z,90.70
2017-08-21T08:53:37.204Z,90.80
2017-08-21T08:56:05.459Z,88.60
2017-08-21T08:58:33.688Z,88.20
2017-08-21T09:01:01.370Z,88.00
2017-08-21T09:03:28.830Z,86.80
2017-08-21T09:05:56.287Z,86.20
2017-08-21T09:08:24.000Z,85.60
2017-08-21T09:10:52.239Z,83.50
2017-08-21T09:13:19.696Z,83.40
2017-08-21T09:15:47.306Z,84.50
2017-08-21T09:18:14.787Z,83.10
2017-08-21T09:20:43.052Z,84.00
2017-08-21T09:23:11.311Z,81.20
2017-08-21T09:25:39.572Z,81.00
2017-08-21T09:28:07.827Z,80.10
2017-08-21T09:30:36.076Z,78.40
2017-08-21T09:33:03.632Z,78.40
2017-08-21T09:35:31.900Z,76.60
2017-08-21T09:38:00.157Z,75.30
2017-08-21T09:40:28.412Z,74.00
2017-08-21T09:42:56.680Z,74.90
2017-08-21T09:45:24.220Z,74.90
2017-08-21T09:47:51.702Z,74.50
2017-08-21T09:50:19.204Z,75.30
2017-08-21T09:52:46.961Z,75.80
2017-08-21T09:55:14.495Z,75.60
2017-08-21T09:57:42.040Z,74.90
2017-08-21T10:00:09.515Z,74.70
2017-08-21T10:03:04.464Z,75.40
2017-08-21T10:05:31.928Z,75.30
2017-08-21T10:07:59.404Z,73.80
2017-08-21T10:10:26.860Z,75.40
2017-08-21T10:12:54.383Z,71.30
2017-08-21T10:15:21.927Z,72.90
2017-08-21T10:17:49.473Z,66.80
2017-08-21T10:20:17.017Z,71.40
2017-08-21T10:22:44.483Z,69.00
2017-08-21T10:25:11.932Z,68.40
2017-08-21T10:27:39.383Z,69.60
2017-08-21T10:30:06.888Z,68.50
2017-08-21T10:32:34.432Z,66.70
2017-08-21T10:35:01.968Z,68.60
2017-08-21T10:37:29.512Z,68.30
2017-08-21T10:39:57.056Z,67.50
2017-08-21T10:42:24.499Z,67.60
2017-08-21T10:44:52.035Z,65.90
2017-08-21T10:47:19.575Z,66.60
2017-08-21T10:49:47.023Z,67.20
2017-08-21T10:52:14.496Z,65.00
2017-08-21T10:54:41.936Z,64.00
2017-08-21T10:57:09.456Z,64.10
2017-08-21T10:59:37.000Z,63.40
2017-08-21T11:02:06.720Z,63.40
2017-08-21T11:04:35.397Z,64.40
2017-08-21T11:07:04.680Z,64.10
2017-08-21T11:09:32.856Z,64.20
2017-08-21T11:12:06.912Z,65.00
2017-08-21T11:14:34.438Z,63.30
2017-08-21T11:17:01.932Z,62.60
2017-08-21T11:19:29.425Z,64.30
2017-08-21T11:21:56.884Z,62.60
2017-08-21T11:24:24.348Z,64.40
2017-08-21T11:26:51.893Z,62.50
2017-08-21T11:29:19.435Z,64.30
2017-08-21T11:31:46.903Z,59.10
2017-08-21T11:34:14.419Z,59.10
2017-08-21T11:36:41.959Z,56.70
2017-08-21T11:39:09.407Z,55.00
2017-08-21T11:41:37.329Z,52.30
2017-08-21T11:44:04.904Z,51.30
2017-08-21T11:46:32.360Z,50.70
2017-08-21T11:48:59.891Z,52.60
2017-08-21T11:51:27.428Z,56.10
2017-08-21T11:53:54.901Z,56.40
2017-08-21T11:56:22.416Z,53.30
2017-08-21T11:58:49.956Z,52.40
2017-08-21T12:01:17.504Z,53.20
2017-08-21T12:03:44.971Z,53.30
2017-08-21T12:06:12.423Z,54.70
2017-08-21T12:08:39.877Z,56.70
2017-08-21T12:11:07.452Z,55.60
2017-08-21T12:13:34.916Z,53.70
2017-08-21T12:16:02.455Z,52.70
2017-08-21T12:18:30.096Z,52.10
2017-08-21T12:20:57.656Z,51.80
2017-08-21T12:23:25.194Z,47.60
2017-08-21T12:25:52.935Z,46.00
2017-08-21T12:28:20.400Z,45.10
2017-08-21T12:30:47.919Z,44.40
2017-08-21T12:33:15.407Z,45.50
2017-08-21T12:35:42.857Z,46.30
2017-08-21T12:38:10.343Z,47.40
2017-08-21T12:40:37.827Z,47.80
2017-08-21T12:43:05.341Z,45.20
2017-08-21T12:45:32.787Z,43.20
2017-08-21T12:48:00.315Z,42.00
2017-08-21T12:50:27.772Z,41.60
2017-08-21T12:52:55.302Z,40.10
2017-08-21T12:55:22.843Z,41.50
2017-08-21T12:57:50.295Z,41.60
2017-08-21T13:00:17.828Z,42.00
2017-08-21T13:02:45.296Z,39.90
2017-08-21T13:05:12.747Z,42.20
2017-08-21T13:07:40.310Z,38.70
2017-08-21T13:10:07.780Z,37.40
2017-08-21T13:12:35.236Z,38.00
2017-08-21T13:15:02.689Z,37.90
2017-08-21T13:17:30.223Z,35.90
2017-08-21T13:19:57.768Z,35.50
2017-08-21T13:22:25.244Z,36.20
2017-08-21T13:24:52.696Z,39.20
2017-08-21T13:27:20.148Z,39.40
2017-08-21T13:29:47.653Z,40.40
2017-08-21T13:32:15.103Z,42.10
2017-08-21T13:34:42.616Z,42.50
2017-08-21T13:37:10.160Z,40.80
2017-08-21T13:39:37.659Z,40.10
2017-08-21T13:42:05.150Z,36.60
2017-08-21T13:44:32.700Z,33.60
2017-08-21T13:47:00.167Z,31.60
2017-08-21T13:49:27.812Z,30.60
2017-08-21T13:51:55.264Z,31.20
2017-08-21T13:54:22.759Z,30.00
2017-08-21T13:56:50.511Z,30.00
2017-08-21T13:59:18.051Z,32.00
2017-08-21T14:01:45.500Z,30.90
2017-08-21T14:04:13.239Z,31.20
2017-08-21T14:06:40.716Z,30.00
2017-08-21T14:09:08.172Z,30.10
2017-08-21T14:11:35.672Z,31.40
2017-08-21T14:14:03.222Z,29.30
2017-08-21T14:16:30.762Z,29.50
2017-08-21T14:18:58.236Z,28.90
2017-08-21T14:21:25.690Z,27.70
2017-08-21T14:23:53.179Z,27.70
2017-08-21T14:26:20.828Z,28.60
2017-08-21T14:28:48.287Z,29.70
2017-08-21T14:31:15.813Z,29.80
2017-08-21T14:33:43.353Z,31.70
2017-08-21T14:36:10.896Z,30.40
2017-08-21T14:38:38.443Z,30.50
2017-08-21T14:41:06.083Z,30.60
2017-08-21T14:43:33.539Z,30.20
2017-08-21T14:46:01.073Z,30.70
2017-08-21T14:48:28.715Z,31.00
2017-08-21T14:50:56.179Z,31.00
2017-08-21T14:53:23.632Z,29.70
2017-08-21T14:55:51.147Z,30.50
2017-08-21T14:58:18.600Z,30.30
2017-08-21T15:00:46.128Z,31.70
2017-08-21T15:03:13.674Z,32.10
2017-08-21T15:05:41.128Z,32.40
2017-08-21T15:08:08.656Z,31.10
2017-08-21T15:10:36.164Z,29.80
2017-08-21T15:13:03.640Z,30.50
2017-08-21T15:15:31.096Z,30.30
2017-08-21T15:17:58.624Z,32.10
2017-08-21T15:20:26.079Z,31.10
2017-08-21T15:22:53.611Z,31.40
2017-08-21T15:25:21.151Z,32.20
2017-08-21T15:27:48.698Z,33.90
2017-08-21T15:30:16.153Z,35.90
2017-08-21T15:32:43.680Z,39.60
2017-08-21T15:35:11.228Z,38.50
2017-08-21T15:37:38.679Z,37.80
2017-08-21T15:40:06.207Z,39.10
2017-08-21T15:42:33.659Z,41.70
2017-08-21T15:45:01.116Z,42.80
2017-08-21T15:47:28.641Z,42.70
2017-08-21T15:49:56.179Z,41.60
2017-08-21T15:52:23.723Z,41.30
2017-08-21T15:54:51.263Z,39.00
2017-08-21T15:57:18.712Z,39.90
2017-08-21T15:59:46.176Z,38.10
2017-08-21T16:02:13.632Z,39.50
2017-08-21T16:04:41.132Z,38.40
2017-08-21T16:07:08.603Z,42.70
2017-08-21T16:09:36.047Z,43.90
2017-08-21T16:12:03.503Z,44.50
2017-08-21T16:14:30.955Z,42.80
2017-08-21T16:16:58.439Z,41.80
2017-08-21T16:19:25.919Z,42.90
2017-08-21T16:21:53.423Z,45.20
2017-08-21T16:24:20.872Z,43.60
2017-08-21T16:26:48.371Z,44.50
2017-08-21T16:29:15.828Z,44.70
2017-08-21T16:31:43.299Z,45.40
2017-08-21T16:34:10.764Z,43.90
2017-08-21T16:36:38.280Z,41.50
2017-08-21T16:39:05.736Z,39.20
2017-08-21T16:41:33.243Z,36.40
2017-08-21T16:44:00.783Z,36.10
2017-08-21T16:46:28.343Z,36.20
2017-08-21T16:48:55.880Z,38.30
2017-08-21T16:51:23.425Z,40.30
2017-08-21T16:53:50.965Z,39.90
2017-08-21T16:56:18.708Z,42.00
2017-08-21T16:58:46.156Z,41.30
2017-08-21T17:01:13.697Z,40.70
2017-08-21T17:03:41.235Z,40.10
2017-08-21T17:06:08.780Z,40.60
2017-08-21T17:08:36.260Z,40.40
2017-08-21T17:11:03.709Z,42.60
2017-08-21T17:13:31.204Z,43.40
2017-08-21T17:15:58.688Z,44.40
2017-08-21T17:18:26.215Z,45.30
2017-08-21T17:20:53.663Z,46.10
2017-08-21T17:23:21.374Z,47.50
2017-08-21T17:25:48.829Z,48.10
2017-08-21T17:28:16.363Z,49.00
2017-08-21T17:30:43.911Z,50.00
2017-08-21T17:33:11.453Z,51.10
2017-08-21T17:35:38.904Z,52.30
2017-08-21T17:38:06.367Z,52.70
2017-08-21T17:40:33.819Z,54.10
2017-08-21T17:43:01.263Z,54.70
2017-08-21T17:45:28.747Z,55.60
2017-08-21T17:47:56.195Z,56.10
2017-08-21T17:50:23.673Z,56.70
2017-08-21T17:52:51.200Z,57.70
2017-08-21T17:55:18.651Z,57.30
2017-08-21T17:57:46.196Z,57.70
2017-08-21T18:00:13.823Z,59.20
2017-08-21T18:02:41.480Z,59.60
2017-08-21T18:05:08.936Z,59.60
2017-08-21T18:07:36.424Z,60.10
2017-08-21T18:10:03.906Z,59.90
2017-08-21T18:12:31.359Z,59.90
2017-08-21T18:14:58.807Z,61.90
2017-08-21T18:17:26.271Z,62.80
2017-08-21T18:19:53.740Z,64.20
2017-08-21T18:22:21.198Z,65.40
2017-08-21T18:24:48.836Z,66.70
2017-08-21T18:27:16.315Z,66.60
2017-08-21T18:29:43.839Z,67.80
2017-08-21T18:32:11.292Z,68.20
2017-08-21T18:34:38.768Z,69.00
2017-08-21T18:37:06.226Z,70.40
2017-08-21T18:39:33.680Z,71.40
2017-08-21T18:42:01.161Z,72.40
2017-08-21T18:44:28.613Z,72.90
2017-08-21T18:46:56.083Z,73.90
2017-08-21T18:49:23.552Z,75.50
2017-08-21T18:51:51.071Z,75.20
2017-08-21T18:54:18.530Z,76.50
2017-08-21T18:56:46.268Z,77.50
2017-08-21T18:59:13.720Z,78.10
2017-08-21T19:01:41.160Z,78.50
2017-08-21T19:04:08.624Z,78.70
2017-08-21T19:06:36.080Z,79.50
2017-08-21T19:09:03.544Z,79.40
2017-08-21T19:11:31.016Z,78.90
2017-08-21T19:13:58.469Z,79.10
2017-08-21T19:16:25.951Z,80.90
2017-08-21T19:18:53.440Z,80.50
2017-08-21T19:21:21.085Z,80.70
2017-08-21T19:23:48.555Z,81.00
2017-08-21T19:26:16.004Z,81.60
2017-08-21T19:28:43.456Z,82.00
2017-08-21T19:31:10.956Z,82.90
2017-08-21T19:33:38.473Z,83.60
2017-08-21T19:36:06.035Z,84.10
2017-08-21T19:38:33.479Z,83.90
2017-08-21T19:41:01.020Z,83.90
2017-08-21T19:43:28.764Z,85.20
2017-08-21T19:45:56.321Z,84.50
2017-08-21T19:48:23.775Z,85.00
2017-08-21T19:50:51.301Z,85.50
2017-08-21T19:53:18.752Z,86.30
2017-08-21T19:55:46.216Z,87.70
2017-08-21T19:58:13.728Z,87.50
2017-08-21T20:00:41.267Z,87.70
2017-08-21T20:03:08.725Z,88.20
2017-08-21T20:05:37.461Z,88.50
2017-08-21T20:08:04.921Z,88.50
2017-08-21T20:10:32.421Z,88.60
2017-08-21T20:12:59.912Z,89.60
2017-08-21T20:15:27.463Z,90.00
2017-08-21T20:17:55.007Z,90.00
2017-08-21T20:20:22.482Z,90.00
2017-08-21T20:22:49.928Z,90.10
2017-08-21T20:25:18.285Z,90.00
2017-08-21T20:27:45.784Z,90.10
2017-08-21T20:30:13.239Z,90.20
2017-08-21T20:32:40.695Z,90.40
2017-08-21T20:35:08.216Z,90.50
2017-08-21T20:37:35.668Z,90.80
2017-08-21T20:40:03.192Z,90.90
2017-08-21T20:42:30.747Z,90.80
2017-08-21T20:44:58.203Z,90.90
2017-08-21T20:47:25.666Z,90.80
2017-08-21T20:49:53.385Z,90.90
2017-08-21T20:52:20.841Z,90.80
2017-08-21T20:54:48.332Z,90.80
2017-08-21T20:57:15.995Z,91.00
2017-08-21T20:59:43.451Z,91.10
2017-08-21T21:02:10.908Z,91.50
2017-08-21T21:04:38.435Z,91.50
2017-08-21T21:07:05.907Z,91.70
2017-08-21T21:09:33.361Z,91.70
2017-08-21T21:12:01.048Z,91.80
2017-08-21T21:14:28.512Z,91.90
2017-08-21T21:16:55.969Z,91.90
2017-08-21T21:19:23.503Z,91.90
2017-08-21T21:21:51.128Z,92.00
2017-08-21T21:24:18.608Z,92.10
2017-08-21T21:26:46.077Z,92.00
2017-08-21T21:29:13.551Z,92.10
2017-08-21T21:31:41.095Z,92.10
2017-08-21T21:34:08.551Z,92.30
2017-08-21T21:36:36.080Z,92.40
2017-08-21T21:39:03.720Z,92.60
2017-08-21T21:41:31.177Z,92.70
2017-08-21T21:43:58.703Z,92.80
2017-08-21T21:46:26.352Z,92.90
2017-08-21T21:48:53.897Z,93.10
2017-08-21T21:51:21.355Z,93.40
2017-08-21T21:53:49.088Z,93.00
2017-08-21T21:56:16.539Z,92.90
2017-08-21T21:58:44.000Z,92.80
2017-08-21T22:01:11.539Z,92.90
2017-08-21T22:03:38.999Z,93.20
2017-08-21T22:06:06.477Z,93.60
2017-08-21T22:08:34.139Z,93.80
2017-08-21T22:11:01.658Z,93.80
2017-08-21T22:13:29.126Z,93.80
2017-08-21T22:15:56.683Z,93.60
2017-08-21T22:18:24.218Z,93.40
2017-08-21T22:20:51.780Z,93.40
2017-08-21T22:23:19.299Z,93.50
2017-08-21T22:25:46.844Z,93.40
2017-08-21T22:28:14.392Z,93.50
2017-08-21T22:30:42.032Z,93.90
2017-08-21T22:33:09.575Z,93.90
2017-08-21T22:35:37.032Z,94.10
2017-08-21T22:38:04.712Z,94.30
2017-08-21T22:40:32.171Z,94.40
2017-08-21T22:42:59.672Z,94.50
2017-08-21T22:45:27.191Z,94.50
2017-08-21T22:47:54.659Z,94.60
2017-08-21T22:50:22.116Z,94.80
2017-08-21T22:52:49.636Z,94.50
2017-08-21T22:55:17.105Z,94.80
2017-08-21T22:57:44.563Z,94.70
2017-08-21T23:00:12.243Z,94.70
2017-08-21T23:02:39.791Z,94.70
2017-08-21T23:05:07.335Z,95.30
2017-08-21T23:07:35.087Z,94.70
2017-08-21T23:10:02.548Z,94.80
2017-08-21T23:12:30.004Z,95.00
2017-08-21T23:14:57.479Z,95.00
2017-08-21T23:17:24.943Z,95.10
2017-08-21T23:19:52.403Z,95.00
2017-08-21T23:22:20.135Z,95.00
2017-08-21T23:24:47.597Z,94.90
2017-08-21T23:27:15.125Z,94.90
2017-08-21T23:29:42.588Z,94.90
2017-08-21T23:32:10.047Z,94.80
2017-08-21T23:34:37.551Z,94.80
2017-08-21T23:37:05.084Z,94.90
2017-08-21T23:39:32.548Z,95.00
2017-08-21T23:42:00.199Z,94.90
2017-08-21T23:44:27.656Z,94.80
2017-08-21T23:46:55.163Z,94.90
2017-08-21T23:49:22.657Z,95.00
2017-08-21T23:51:50.117Z,94.80
2017-08-21T23:54:17.567Z,94.60
2017-08-21T23:56:45.135Z,94.90
2017-08-21T23:59:12.691Z,95.30
